createdAt,value
2023-02-13T00:00:23.957Z,30.75
2023-02-13T00:02:51.196Z,31.10
2023-02-13T00:05:18.045Z,33.25
2023-02-13T00:07:44.826Z,29.23
2023-02-13T00:10:11.887Z,32.53
2023-02-13T00:12:38.665Z,29.70
2023-02-13T00:15:05.854Z,28.45
2023-02-13T00:17:32.717Z,30.45
2023-02-13T00:19:59.599Z,27.10
2023-02-13T00:22:26.721Z,30.08
2023-02-13T00:24:53.508Z,26.13
2023-02-13T00:27:20.374Z,28.42
2023-02-13T00:29:47.537Z,28.13
2023-02-13T00:32:14.928Z,25.42
2023-02-13T00:34:42.506Z,25.63
2023-02-13T00:37:09.305Z,25.90
2023-02-13T00:39:36.086Z,26.17
2023-02-13T00:42:02.971Z,25.23
2023-02-13T00:44:29.716Z,24.92
2023-02-13T00:46:56.473Z,28.92
2023-02-13T00:49:23.277Z,23.63
2023-02-13T00:51:50.154Z,21.80
2023-02-13T00:54:17.051Z,23.60
2023-02-13T00:56:43.840Z,23.58
2023-02-13T00:59:10.614Z,23.02
2023-02-13T01:01:37.450Z,22.95
2023-02-13T01:04:04.290Z,22.85
2023-02-13T01:06:31.222Z,23.98
2023-02-13T01:08:57.971Z,24.33
2023-02-13T01:11:24.742Z,20.90
2023-02-13T01:13:51.580Z,22.67
2023-02-13T01:16:18.417Z,22.60
2023-02-13T01:18:45.261Z,23.88
2023-02-13T01:21:20.425Z,23.02
2023-02-13T01:23:48.072Z,24.60
2023-02-13T01:26:23.183Z,24.05
2023-02-13T01:28:54.534Z,23.95
2023-02-13T01:31:22.121Z,20.85
2023-02-13T01:33:49.072Z,22.88
2023-02-13T01:36:16.108Z,21.77
2023-02-13T01:38:49.043Z,22.48
2023-02-13T01:43:58.018Z,23.60
2023-02-13T01:46:28.067Z,24.33
2023-02-13T01:49:01.185Z,24.05
2023-02-13T01:51:32.207Z,21.60
2023-02-13T01:54:06.919Z,23.83
2023-02-13T01:56:47.519Z,25.75
2023-02-13T01:59:19.868Z,24.85
2023-02-13T02:01:47.680Z,23.50
2023-02-13T02:04:22.479Z,26.17
2023-02-13T02:06:55.822Z,28.17
2023-02-13T02:09:29.233Z,22.33
2023-02-13T02:11:59.342Z,23.98
2023-02-13T02:14:27.617Z,24.83
2023-02-13T02:16:54.560Z,26.25
2023-02-13T02:19:38.315Z,26.70
2023-02-13T02:22:29.778Z,26.52
2023-02-13T02:25:08.931Z,25.67
2023-02-13T02:28:09.735Z,27.45
2023-02-13T02:30:36.647Z,25.15
2023-02-13T02:33:10.084Z,25.73
2023-02-13T02:36:18.219Z,27.20
2023-02-13T02:39:04.064Z,25.67
2023-02-13T02:42:00.155Z,26.48
2023-02-13T02:44:42.925Z,30.48
2023-02-13T02:47:42.714Z,25.33
2023-02-13T02:51:00.631Z,25.70
2023-02-13T02:53:39.292Z,27.50
2023-02-13T02:56:31.353Z,27.85
2023-02-13T02:59:34.600Z,24.38
2023-02-13T03:02:21.652Z,28.02
2023-02-13T03:05:11.632Z,31.17
2023-02-13T03:07:38.653Z,29.77
2023-02-13T03:10:31.415Z,26.75
2023-02-13T03:13:23.309Z,26.58
2023-02-13T03:16:12.315Z,27.23
2023-02-13T03:19:02.417Z,27.17
2023-02-13T03:22:08.821Z,26.30
2023-02-13T03:25:30.204Z,27.20
2023-02-13T03:28:24.393Z,29.75
2023-02-13T03:31:07.170Z,30.88
2023-02-13T03:33:43.079Z,29.88
2023-02-13T03:36:34.426Z,28.55
2023-02-13T03:39:19.029Z,31.58
2023-02-13T03:42:06.293Z,28.92
2023-02-13T03:44:47.765Z,31.08
2023-02-13T03:47:15.268Z,29.45
2023-02-13T03:50:05.970Z,30.48
2023-02-13T03:52:34.737Z,30.13
2023-02-13T03:55:33.032Z,29.42
2023-02-13T03:58:42.200Z,29.23
2023-02-13T04:01:12.612Z,31.15
2023-02-13T04:03:54.423Z,30.45
2023-02-13T04:06:30.789Z,30.30
2023-02-13T04:08:57.630Z,31.85
2023-02-13T04:11:44.682Z,33.13
2023-02-13T04:14:21.554Z,31.17
2023-02-13T04:16:53.269Z,31.20
2023-02-13T04:19:21.081Z,31.80
2023-02-13T04:21:54.908Z,32.55
2023-02-13T04:24:21.697Z,33.70
2023-02-13T04:26:48.494Z,30.38
2023-02-13T04:29:15.370Z,34.40
2023-02-13T04:31:42.282Z,34.50
2023-02-13T04:34:09.190Z,29.10
2023-02-13T04:36:35.977Z,31.42
2023-02-13T04:39:02.938Z,28.00
2023-02-13T04:41:29.806Z,29.13
2023-02-13T04:43:56.645Z,30.00
2023-02-13T04:46:23.569Z,27.40
2023-02-13T04:48:50.553Z,28.88
2023-02-13T04:51:17.413Z,27.95
2023-02-13T04:53:44.258Z,28.20
2023-02-13T04:56:11.181Z,31.45
2023-02-13T04:58:37.968Z,29.75
2023-02-13T05:01:15.417Z,30.63
2023-02-13T05:03:42.911Z,28.98
2023-02-13T05:06:09.921Z,27.35
2023-02-13T05:08:36.811Z,31.90
2023-02-13T05:11:03.803Z,27.92
2023-02-13T05:13:30.717Z,30.90
2023-02-13T05:15:57.911Z,34.92
2023-02-13T05:18:25.048Z,29.85
2023-02-13T05:21:10.472Z,30.52
2023-02-13T05:23:37.552Z,30.77
2023-02-13T05:26:04.524Z,31.13
2023-02-13T05:28:49.802Z,31.27
2023-02-13T05:31:16.606Z,31.10
2023-02-13T05:33:43.457Z,31.25
2023-02-13T05:36:10.256Z,32.00
2023-02-13T05:38:37.086Z,30.88
2023-02-13T05:41:03.976Z,35.92
2023-02-13T05:43:30.873Z,32.45
2023-02-13T05:46:08.759Z,33.33
2023-02-13T05:48:35.955Z,28.00
2023-02-13T05:51:03.093Z,31.08
2023-02-13T05:53:30.357Z,28.50
2023-02-13T05:55:57.190Z,31.33
2023-02-13T05:58:23.988Z,29.33
2023-02-13T06:00:50.865Z,27.52
2023-02-13T06:03:17.631Z,32.35
2023-02-13T06:05:44.542Z,30.52
2023-02-13T06:08:11.349Z,28.17
2023-02-13T06:10:38.468Z,24.17
2023-02-13T06:13:05.780Z,26.90
2023-02-13T06:15:32.624Z,31.92
2023-02-13T06:17:59.532Z,27.08
2023-02-13T06:20:26.277Z,29.20
2023-02-13T06:22:53.580Z,29.40
2023-02-13T06:25:20.902Z,27.58
2023-02-13T06:27:47.988Z,34.80
2023-02-13T06:30:15.737Z,29.10
2023-02-13T06:32:42.995Z,31.80
2023-02-13T06:35:09.909Z,29.20
2023-02-13T06:37:36.703Z,31.95
2023-02-13T06:40:03.563Z,29.48
2023-02-13T06:42:30.275Z,33.58
2023-02-13T06:44:57.021Z,32.40
2023-02-13T06:47:23.833Z,35.33
2023-02-13T06:49:50.593Z,33.17
2023-02-13T06:52:17.410Z,34.53
2023-02-13T06:54:48.003Z,36.88
2023-02-13T06:57:15.936Z,34.72
2023-02-13T06:59:43.166Z,32.47
2023-02-13T07:02:13.400Z,38.17
2023-02-13T07:04:40.245Z,38.30
2023-02-13T07:07:07.168Z,35.00
2023-02-13T07:09:34.122Z,42.95
2023-02-13T07:12:07.434Z,34.90
2023-02-13T07:14:34.256Z,38.78
2023-02-13T07:17:00.986Z,37.67
2023-02-13T07:19:27.780Z,37.78
2023-02-13T07:21:54.548Z,43.63
2023-02-13T07:24:21.295Z,43.78
2023-02-13T07:26:48.043Z,39.38
2023-02-13T07:29:14.783Z,34.70
2023-02-13T07:31:41.770Z,38.10
2023-02-13T07:34:08.543Z,36.45
2023-02-13T07:36:35.383Z,36.75
2023-02-13T07:39:02.183Z,38.00
2023-02-13T07:41:28.940Z,35.85
2023-02-13T07:43:55.774Z,38.38
2023-02-13T07:46:22.612Z,37.53
2023-02-13T07:48:51.646Z,36.10
2023-02-13T07:51:18.510Z,37.53
2023-02-13T07:53:45.274Z,38.88
2023-02-13T07:56:12.078Z,35.38
2023-02-13T07:58:40.995Z,35.58
2023-02-13T08:01:09.423Z,35.13
2023-02-13T08:03:36.567Z,35.35
2023-02-13T08:06:04.637Z,35.03
2023-02-13T08:08:31.574Z,30.33
2023-02-13T08:11:21.852Z,34.15
2023-02-13T08:13:48.638Z,34.00
2023-02-13T08:16:15.414Z,31.90
2023-02-13T08:18:42.236Z,30.02
2023-02-13T08:21:09.126Z,30.75
2023-02-13T08:23:36.063Z,32.47
2023-02-13T08:26:02.954Z,30.05
2023-02-13T08:28:30.358Z,27.83
2023-02-13T08:30:57.280Z,31.52
2023-02-13T08:33:24.179Z,33.50
2023-02-13T08:35:50.965Z,33.65
2023-02-13T08:38:17.750Z,29.92
2023-02-13T08:40:44.628Z,28.08
2023-02-13T08:43:11.431Z,29.65
2023-02-13T08:45:38.290Z,30.30
2023-02-13T08:48:05.210Z,30.20
2023-02-13T08:50:32.017Z,31.30
2023-02-13T08:52:59.904Z,27.55
2023-02-13T08:55:28.137Z,26.88
2023-02-13T08:57:54.974Z,28.90
2023-02-13T09:00:23.272Z,27.88
2023-02-13T09:02:50.321Z,32.25
2023-02-13T09:05:17.329Z,30.58
2023-02-13T09:07:44.307Z,29.60
2023-02-13T09:10:11.470Z,27.83
2023-02-13T09:12:38.353Z,25.80
2023-02-13T09:15:05.847Z,26.23
2023-02-13T09:17:32.592Z,29.33
2023-02-13T09:19:59.457Z,29.13
2023-02-13T09:22:26.226Z,34.90
2023-02-13T09:24:53.046Z,29.35
2023-02-13T09:27:19.858Z,25.02
2023-02-13T09:29:46.884Z,26.02
2023-02-13T09:32:13.780Z,28.48
2023-02-13T09:34:40.836Z,25.90
2023-02-13T09:37:10.374Z,28.33
2023-02-13T09:39:37.145Z,26.30
2023-02-13T09:42:16.226Z,25.40
2023-02-13T09:44:45.355Z,22.25
2023-02-13T09:47:30.028Z,26.20
2023-02-13T09:50:29.632Z,23.25
2023-02-13T09:52:58.698Z,23.55
2023-02-13T09:55:52.955Z,24.50
2023-02-13T09:58:49.388Z,27.42
2023-02-13T10:01:33.999Z,22.65
2023-02-13T10:04:26.559Z,25.20
2023-02-13T10:07:04.867Z,24.23
2023-02-13T10:10:01.291Z,22.30
2023-02-13T10:12:57.016Z,23.20
2023-02-13T10:15:52.039Z,22.33
2023-02-13T10:18:24.988Z,19.65
2023-02-13T10:23:26.456Z,23.88
2023-02-13T10:26:01.297Z,18.98
2023-02-13T10:28:34.354Z,20.08
2023-02-13T10:33:58.888Z,16.85
2023-02-13T10:36:31.255Z,18.20
2023-02-13T10:39:01.507Z,19.55
2023-02-13T10:41:49.572Z,18.48
2023-02-13T10:44:32.721Z,15.15
2023-02-13T10:47:24.657Z,16.13
2023-02-13T10:50:05.205Z,18.50
2023-02-13T10:53:09.637Z,16.95
2023-02-13T10:56:00.525Z,15.77
2023-02-13T10:58:36.803Z,17.02
2023-02-13T11:01:11.713Z,17.33
2023-02-13T11:03:39.441Z,13.45
2023-02-13T11:06:09.067Z,22.38
2023-02-13T11:08:40.857Z,16.05
2023-02-13T11:11:36.973Z,16.25
2023-02-13T11:14:09.890Z,17.52
2023-02-13T11:16:57.652Z,15.20
2023-02-13T11:19:29.288Z,14.15
2023-02-13T11:22:14.480Z,15.23
2023-02-13T11:24:50.584Z,12.15
2023-02-13T11:27:36.799Z,14.15
2023-02-13T11:30:28.099Z,17.33
2023-02-13T11:33:07.638Z,16.13
2023-02-13T11:35:36.682Z,14.90
2023-02-13T11:38:15.663Z,13.90
2023-02-13T11:40:46.436Z,11.95
2023-02-13T11:43:35.400Z,11.90
2023-02-13T11:46:20.494Z,12.48
2023-02-13T11:49:04.139Z,11.23
2023-02-13T11:51:40.685Z,13.05
2023-02-13T11:54:37.686Z,12.35
2023-02-13T11:57:55.895Z,10.38
2023-02-13T12:00:40.060Z,15.48
2023-02-13T12:03:22.219Z,14.02
2023-02-13T12:06:27.904Z,11.45
2023-02-13T12:08:55.201Z,12.60
2023-02-13T12:11:48.663Z,10.52
2023-02-13T12:17:07.173Z,12.48
2023-02-13T12:19:51.622Z,9.95
2023-02-13T12:22:34.858Z,9.50
2023-02-13T12:25:04.941Z,10.00
2023-02-13T12:28:01.764Z,8.95
2023-02-13T12:30:47.441Z,8.98
2023-02-13T12:33:32.967Z,8.98
2023-02-13T12:36:15.033Z,11.05
2023-02-13T12:39:19.203Z,9.57
2023-02-13T12:41:45.968Z,9.40
2023-02-13T12:44:16.947Z,9.73
2023-02-13T12:47:02.343Z,8.02
2023-02-13T12:49:38.123Z,9.40
2023-02-13T12:52:39.080Z,7.35
2023-02-13T12:55:21.666Z,10.23
2023-02-13T12:58:14.453Z,10.55
2023-02-13T13:01:03.792Z,7.72
2023-02-13T13:04:04.106Z,10.68
2023-02-13T13:06:42.103Z,9.80
2023-02-13T13:09:29.070Z,8.93
2023-02-13T13:12:18.268Z,9.82
2023-02-13T13:15:06.399Z,9.52
2023-02-13T13:17:48.698Z,11.25
2023-02-13T13:20:58.258Z,9.95
2023-02-13T13:23:53.489Z,9.50
2023-02-13T13:26:25.105Z,11.07
2023-02-13T13:28:58.234Z,6.85
2023-02-13T13:31:28.278Z,6.07
2023-02-13T13:34:00.638Z,5.40
2023-02-13T13:36:53.901Z,5.97
2023-02-13T13:39:39.764Z,6.38
2023-02-13T13:42:11.898Z,5.55
2023-02-13T13:44:53.727Z,5.82
2023-02-13T13:47:27.053Z,7.45
2023-02-13T13:49:57.761Z,7.75
2023-02-13T13:52:28.373Z,5.85
2023-02-13T13:54:56.959Z,4.70
2023-02-13T13:57:25.333Z,7.40
2023-02-13T13:59:57.028Z,4.07
2023-02-13T14:02:24.002Z,7.70
2023-02-13T14:05:17.971Z,18.50
2023-02-13T14:07:46.657Z,7.10
2023-02-13T14:10:25.799Z,7.05
2023-02-13T14:12:55.847Z,13.30
2023-02-13T14:15:37.913Z,11.43
2023-02-13T14:18:13.648Z,8.05
2023-02-13T14:20:50.755Z,5.00
2023-02-13T14:23:38.245Z,4.68
2023-02-13T14:26:17.152Z,6.90
2023-02-13T14:28:50.212Z,5.95
2023-02-13T14:31:22.846Z,4.70
2023-02-13T14:34:20.315Z,6.60
2023-02-13T14:37:02.342Z,3.65
2023-02-13T14:39:32.087Z,4.38
2023-02-13T14:42:01.517Z,4.45
2023-02-13T14:44:49.428Z,5.03
2023-02-13T14:47:22.170Z,5.32
2023-02-13T14:49:50.575Z,7.15
2023-02-13T14:52:28.266Z,5.47
2023-02-13T14:55:16.973Z,9.60
2023-02-13T14:57:47.422Z,4.75
2023-02-13T15:00:23.851Z,4.97
2023-02-13T15:02:55.725Z,7.30
2023-02-13T15:05:27.171Z,7.32
2023-02-13T15:08:12.445Z,5.05
2023-02-13T15:10:53.401Z,6.43
2023-02-13T15:13:35.985Z,6.55
2023-02-13T15:16:05.816Z,9.18
2023-02-13T15:18:43.408Z,9.07
2023-02-13T15:21:25.312Z,7.50
2023-02-13T15:23:56.639Z,5.28
2023-02-13T15:26:27.940Z,4.55
2023-02-13T15:29:09.143Z,6.35
2023-02-13T15:31:38.393Z,5.03
2023-02-13T15:34:24.618Z,5.88
2023-02-13T15:36:51.818Z,6.20
2023-02-13T15:39:23.318Z,8.52
2023-02-13T15:41:56.124Z,8.32
2023-02-13T15:44:38.364Z,6.88
2023-02-13T15:47:15.662Z,7.57
2023-02-13T15:49:50.464Z,8.18
2023-02-13T15:52:31.265Z,11.15
2023-02-13T15:54:58.573Z,11.95
2023-02-13T15:57:26.980Z,6.38
2023-02-13T15:59:56.618Z,7.30
2023-02-13T16:02:29.980Z,8.52
2023-02-13T16:04:57.543Z,11.00
2023-02-13T16:07:24.319Z,8.65
2023-02-13T16:09:52.589Z,7.78
2023-02-13T16:12:28.313Z,8.38
2023-02-13T16:15:00.099Z,6.85
2023-02-13T16:17:33.975Z,6.97
2023-02-13T16:20:11.565Z,5.60
2023-02-13T16:22:45.412Z,8.77
2023-02-13T16:25:12.229Z,10.25
2023-02-13T16:27:51.071Z,5.68
2023-02-13T16:30:23.771Z,7.18
2023-02-13T16:32:50.691Z,6.20
2023-02-13T16:35:28.078Z,7.65
2023-02-13T16:38:04.172Z,8.25
2023-02-13T16:40:44.501Z,9.32
2023-02-13T16:43:34.148Z,9.68
2023-02-13T16:46:11.651Z,8.05
2023-02-13T16:48:38.762Z,6.53
2023-02-13T16:51:12.596Z,7.95
2023-02-13T16:53:40.511Z,7.72
2023-02-13T16:56:11.027Z,9.65
2023-02-13T16:58:37.895Z,9.95
2023-02-13T17:01:08.717Z,7.22
2023-02-13T17:03:35.618Z,8.90
2023-02-13T17:06:03.394Z,9.85
2023-02-13T17:08:31.871Z,9.88
2023-02-13T17:11:04.407Z,11.30
2023-02-13T17:13:31.396Z,8.13
2023-02-13T17:16:00.022Z,7.28
2023-02-13T17:18:27.295Z,7.30
2023-02-13T17:20:54.647Z,9.25
2023-02-13T17:23:24.599Z,7.93
2023-02-13T17:25:53.716Z,8.38
2023-02-13T17:28:26.813Z,9.02
2023-02-13T17:33:29.705Z,9.95
2023-02-13T17:35:57.229Z,9.07
2023-02-13T17:38:24.163Z,8.52
2023-02-13T17:40:51.900Z,8.02
2023-02-13T17:43:19.803Z,7.80
2023-02-13T17:45:47.449Z,6.97
2023-02-13T17:48:14.524Z,9.10
2023-02-13T17:50:41.754Z,7.80
2023-02-13T17:53:20.984Z,9.05
2023-02-13T17:55:47.750Z,7.53
2023-02-13T17:58:14.500Z,8.57
2023-02-13T18:00:41.413Z,13.27
2023-02-13T18:03:08.304Z,8.73
2023-02-13T18:05:35.065Z,7.50
2023-02-13T18:08:04.515Z,10.50
2023-02-13T18:10:33.959Z,9.30
2023-02-13T18:13:04.508Z,10.55
2023-02-13T18:15:36.215Z,8.32
2023-02-13T18:18:02.988Z,10.20
2023-02-13T18:20:29.966Z,8.13
2023-02-13T18:22:56.788Z,6.22
2023-02-13T18:25:23.723Z,5.30
2023-02-13T18:27:50.737Z,6.25
2023-02-13T18:30:21.431Z,6.55
2023-02-13T18:32:53.549Z,4.03
2023-02-13T18:35:21.259Z,5.13
2023-02-13T18:37:48.220Z,4.70
2023-02-13T18:40:16.747Z,3.55
2023-02-13T18:42:44.422Z,3.60
2023-02-13T18:45:12.183Z,6.55
2023-02-13T18:47:39.200Z,7.55
2023-02-13T18:50:06.770Z,6.38
2023-02-13T18:52:35.154Z,7.35
2023-02-13T18:55:02.299Z,6.85
2023-02-13T18:57:29.146Z,6.20
2023-02-13T18:59:56.090Z,4.85
2023-02-13T19:02:23.551Z,4.10
2023-02-13T19:04:50.535Z,4.80
2023-02-13T19:07:17.454Z,6.53
2023-02-13T19:09:44.521Z,7.93
2023-02-13T19:12:11.614Z,6.68
2023-02-13T19:14:39.437Z,5.10
2023-02-13T19:17:08.296Z,6.88
2023-02-13T19:19:35.181Z,6.97
2023-02-13T19:22:02.518Z,6.50
2023-02-13T19:24:29.584Z,7.00
2023-02-13T19:26:56.381Z,6.05
2023-02-13T19:29:23.307Z,9.80
2023-02-13T19:31:50.280Z,7.95
2023-02-13T19:34:17.205Z,10.65
2023-02-13T19:36:44.094Z,5.57
2023-02-13T19:39:11.796Z,10.25
2023-02-13T19:41:40.837Z,11.20
2023-02-13T19:44:09.020Z,9.25
2023-02-13T19:46:37.038Z,10.45
2023-02-13T19:49:05.108Z,9.75
2023-02-13T19:51:33.948Z,14.73
2023-02-13T19:54:06.198Z,14.23
2023-02-13T19:56:35.776Z,15.20
2023-02-13T19:59:05.239Z,13.60
2023-02-13T20:01:33.704Z,15.35
2023-02-13T20:04:00.746Z,13.10
2023-02-13T20:06:36.086Z,16.45
2023-02-13T20:09:07.849Z,14.30
2023-02-13T20:11:34.983Z,15.45
2023-02-13T20:14:02.252Z,14.13
2023-02-13T20:16:40.328Z,12.43
2023-02-13T20:19:14.202Z,13.45
2023-02-13T20:21:48.694Z,14.20
2023-02-13T20:24:15.848Z,14.48
2023-02-13T20:26:43.041Z,15.65
2023-02-13T20:29:10.041Z,12.55
2023-02-13T20:31:37.203Z,19.30
2023-02-13T20:34:06.221Z,18.25
2023-02-13T20:36:33.522Z,13.98
2023-02-13T20:39:03.489Z,17.10
2023-02-13T20:41:33.588Z,13.15
2023-02-13T20:44:06.585Z,12.23
2023-02-13T20:49:01.090Z,13.75
2023-02-13T20:51:28.269Z,18.50
2023-02-13T20:53:55.411Z,14.13
2023-02-13T20:56:24.032Z,15.45
2023-02-13T20:58:53.554Z,14.70
2023-02-13T21:01:24.906Z,16.63
2023-02-13T21:03:56.333Z,19.42
2023-02-13T21:06:31.408Z,16.65
2023-02-13T21:08:58.435Z,23.95
2023-02-13T21:11:26.372Z,19.45
2023-02-13T21:13:56.416Z,19.42
2023-02-13T21:16:26.505Z,16.25
2023-02-13T21:18:59.370Z,22.33
2023-02-13T21:21:29.030Z,19.27
2023-02-13T21:23:57.730Z,20.30
2023-02-13T21:26:25.554Z,19.55
2023-02-13T21:28:52.676Z,18.58
2023-02-13T21:31:32.266Z,20.15
2023-02-13T21:34:06.557Z,17.02
2023-02-13T21:36:34.718Z,19.63
2023-02-13T21:39:01.699Z,19.88
2023-02-13T21:41:28.795Z,21.40
2023-02-13T21:43:55.660Z,23.40
2023-02-13T21:46:31.786Z,20.98
2023-02-13T21:49:00.855Z,18.33
2023-02-13T21:51:30.109Z,21.10
2023-02-13T21:53:57.889Z,22.25
2023-02-13T21:56:30.373Z,21.08
2023-02-13T21:58:58.195Z,21.25
2023-02-13T22:01:29.083Z,20.38
2023-02-13T22:04:01.377Z,21.23
2023-02-13T22:06:33.272Z,22.30
2023-02-13T22:09:03.644Z,18.80
2023-02-13T22:11:34.437Z,21.15
2023-02-13T22:14:08.004Z,23.73
2023-02-13T22:16:37.263Z,22.85
2023-02-13T22:19:05.733Z,21.27
2023-02-13T22:21:34.255Z,22.75
2023-02-13T22:24:01.319Z,22.55
2023-02-13T22:26:30.803Z,21.95
2023-02-13T22:29:06.428Z,22.90
2023-02-13T22:31:33.773Z,21.02
2023-02-13T22:34:05.348Z,23.70
2023-02-13T22:36:34.480Z,23.55
2023-02-13T22:39:01.440Z,25.02
2023-02-13T22:41:28.664Z,23.67
2023-02-13T22:43:56.309Z,20.13
2023-02-13T22:46:31.646Z,21.13
2023-02-13T22:48:59.452Z,25.42
2023-02-13T22:51:33.290Z,24.98
2023-02-13T22:54:00.367Z,26.33
2023-02-13T22:56:28.974Z,21.23
2023-02-13T22:58:56.292Z,23.52
2023-02-13T23:01:25.170Z,24.80
2023-02-13T23:03:52.394Z,23.65
2023-02-13T23:06:19.839Z,20.75
2023-02-13T23:08:49.214Z,23.75
2023-02-13T23:11:36.864Z,23.05
2023-02-13T23:14:04.623Z,23.65
2023-02-13T23:16:50.464Z,23.58
2023-02-13T23:19:17.456Z,22.10
2023-02-13T23:21:44.754Z,23.63
2023-02-13T23:24:11.546Z,21.60
2023-02-13T23:26:38.657Z,20.20
2023-02-13T23:29:05.463Z,25.00
2023-02-13T23:31:32.419Z,25.20
2023-02-13T23:33:59.281Z,25.23
2023-02-13T23:36:26.117Z,21.13
2023-02-13T23:38:53.048Z,21.70
2023-02-13T23:41:19.859Z,22.63
2023-02-13T23:43:46.626Z,22.83
2023-02-13T23:46:13.539Z,23.70
2023-02-13T23:48:40.427Z,20.42
2023-02-13T23:51:07.222Z,25.02
2023-02-13T23:53:37.285Z,25.10
2023-02-13T23:56:08.575Z,22.77
2023-02-13T23:58:35.594Z,26.42
